Irishtown, Illinois
Current Conditions -  °F | °C
As of 3:35 AM on Sunday 23 Nov 2014 (Local Time) from KENL Reporting Station
Scattered Clouds Scattered Clouds  
Wind Chill: 51°   Ceiling: Unl
Heat Index: 51°   Visibility: 10mi
Dew Point: 40°   Wind: 12mph
Humidity: 67%   Direction: 160°SSE
Pressure: 29.83"   Gusts: NA
Location:  38.7527°N, 89.3215°W
Report Text: KENL 230935Z AUTO 16010KT 10SM SCT037 11/05 A2983 RMK AO2 T01050045
Loading
Personal Weather Stations






























Interactive Weather Map New forecast layout! Learn more

10-Day Weather Forecast

Advertisements
Track Severe Weather on mobile